sensor_id;sensor_type;location;lat;lon;timestamp;P1;durP1;ratioP1;P2;durP2;ratioP2
75680;SDS011;64294;49.176;16.626;2023-10-09T00:02:09;12.60;;;5.60;;
75680;SDS011;64294;49.176;16.626;2023-10-09T00:04:39;11.38;;;5.43;;
75680;SDS011;64294;49.176;16.626;2023-10-09T00:07:10;12.13;;;5.63;;
75680;SDS011;64294;49.176;16.626;2023-10-09T00:09:36;10.93;;;5.25;;
75680;SDS011;64294;49.176;16.626;2023-10-09T00:12:21;10.05;;;5.03;;
75680;SDS011;64294;49.176;16.626;2023-10-09T00:14:50;11.85;;;5.65;;
75680;SDS011;64294;49.176;16.626;2023-10-09T00:17:33;13.65;;;5.38;;
75680;SDS011;64294;49.176;16.626;2023-10-09T00:19:58;11.65;;;5.22;;
75680;SDS011;64294;49.176;16.626;2023-10-09T00:22:24;10.27;;;5.55;;
75680;SDS011;64294;49.176;16.626;2023-10-09T00:24:55;13.68;;;4.93;;
75680;SDS011;64294;49.176;16.626;2023-10-09T00:27:40;11.68;;;4.85;;
75680;SDS011;64294;49.176;16.626;2023-10-09T00:30:14;11.18;;;4.95;;
75680;SDS011;64294;49.176;16.626;2023-10-09T00:32:54;10.18;;;5.32;;
75680;SDS011;64294;49.176;16.626;2023-10-09T00:35:23;11.05;;;5.50;;
75680;SDS011;64294;49.176;16.626;2023-10-09T00:38:19;9.85;;;5.00;;
75680;SDS011;64294;49.176;16.626;2023-10-09T00:40:44;9.50;;;5.30;;
75680;SDS011;64294;49.176;16.626;2023-10-09T00:43:21;11.27;;;5.32;;
75680;SDS011;64294;49.176;16.626;2023-10-09T00:45:53;10.73;;;6.00;;
75680;SDS011;64294;49.176;16.626;2023-10-09T00:48:23;10.77;;;5.60;;
75680;SDS011;64294;49.176;16.626;2023-10-09T00:50:55;10.82;;;5.35;;
75680;SDS011;64294;49.176;16.626;2023-10-09T00:53:24;11.45;;;5.60;;
75680;SDS011;64294;49.176;16.626;2023-10-09T00:55:59;10.60;;;5.65;;
75680;SDS011;64294;49.176;16.626;2023-10-09T00:58:47;10.95;;;5.20;;
75680;SDS011;64294;49.176;16.626;2023-10-09T01:01:21;10.65;;;5.50;;
75680;SDS011;64294;49.176;16.626;2023-10-09T01:03:52;11.82;;;6.07;;
75680;SDS011;64294;49.176;16.626;2023-10-09T01:06:18;11.60;;;6.20;;
75680;SDS011;64294;49.176;16.626;2023-10-09T01:08:49;11.48;;;5.78;;
75680;SDS011;64294;49.176;16.626;2023-10-09T01:11:34;10.85;;;5.10;;
75680;SDS011;64294;49.176;16.626;2023-10-09T01:14:03;11.35;;;6.10;;
75680;SDS011;64294;49.176;16.626;2023-10-09T01:16:37;9.50;;;5.65;;
75680;SDS011;64294;49.176;16.626;2023-10-09T01:19:06;12.75;;;5.88;;
75680;SDS011;64294;49.176;16.626;2023-10-09T01:21:38;12.80;;;6.60;;
75680;SDS011;64294;49.176;16.626;2023-10-09T01:24:05;13.63;;;6.78;;
75680;SDS011;64294;49.176;16.626;2023-10-09T01:29:08;15.68;;;6.57;;
75680;SDS011;64294;49.176;16.626;2023-10-09T01:31:49;12.75;;;6.10;;
75680;SDS011;64294;49.176;16.626;2023-10-09T01:34:23;14.07;;;5.63;;
75680;SDS011;64294;49.176;16.626;2023-10-09T01:36:51;10.73;;;5.53;;
75680;SDS011;64294;49.176;16.626;2023-10-09T01:39:20;13.35;;;5.43;;
75680;SDS011;64294;49.176;16.626;2023-10-09T01:41:53;11.88;;;5.45;;
75680;SDS011;64294;49.176;16.626;2023-10-09T01:44:26;9.30;;;5.00;;
75680;SDS011;64294;49.176;16.626;2023-10-09T01:46:59;11.57;;;5.53;;
75680;SDS011;64294;49.176;16.626;2023-10-09T01:49:35;12.93;;;5.70;;
75680;SDS011;64294;49.176;16.626;2023-10-09T01:52:03;12.25;;;5.85;;
75680;SDS011;64294;49.176;16.626;2023-10-09T01:54:35;11.05;;;5.60;;
75680;SDS011;64294;49.176;16.626;2023-10-09T01:57:05;9.18;;;5.35;;
75680;SDS011;64294;49.176;16.626;2023-10-09T01:59:35;12.02;;;5.75;;
75680;SDS011;64294;49.176;16.626;2023-10-09T02:02:12;11.65;;;4.97;;
75680;SDS011;64294;49.176;16.626;2023-10-09T02:04:54;15.02;;;5.50;;
75680;SDS011;64294;49.176;16.626;2023-10-09T02:07:50;10.85;;;5.60;;
75680;SDS011;64294;49.176;16.626;2023-10-09T02:10:17;9.40;;;5.10;;
75680;SDS011;64294;49.176;16.626;2023-10-09T02:13:01;10.40;;;5.30;;
75680;SDS011;64294;49.176;16.626;2023-10-09T02:15:41;8.77;;;5.00;;
75680;SDS011;64294;49.176;16.626;2023-10-09T02:18:16;12.43;;;5.10;;
75680;SDS011;64294;49.176;16.626;2023-10-09T02:20:48;9.27;;;5.10;;
75680;SDS011;64294;49.176;16.626;2023-10-09T02:23:24;12.95;;;5.47;;
75680;SDS011;64294;49.176;16.626;2023-10-09T02:26:17;11.20;;;5.20;;
75680;SDS011;64294;49.176;16.626;2023-10-09T02:29:02;8.45;;;4.68;;
75680;SDS011;64294;49.176;16.626;2023-10-09T02:31:40;11.50;;;5.13;;
75680;SDS011;64294;49.176;16.626;2023-10-09T02:34:09;8.77;;;5.00;;
75680;SDS011;64294;49.176;16.626;2023-10-09T02:36:38;9.60;;;4.93;;
75680;SDS011;64294;49.176;16.626;2023-10-09T02:39:07;12.63;;;4.90;;
75680;SDS011;64294;49.176;16.626;2023-10-09T02:41:48;9.93;;;5.05;;
75680;SDS011;64294;49.176;16.626;2023-10-09T02:44:26;7.35;;;4.10;;
75680;SDS011;64294;49.176;16.626;2023-10-09T02:46:55;12.10;;;4.57;;
75680;SDS011;64294;49.176;16.626;2023-10-09T02:49:23;10.80;;;4.30;;
75680;SDS011;64294;49.176;16.626;2023-10-09T02:51:49;8.90;;;4.10;;
75680;SDS011;64294;49.176;16.626;2023-10-09T02:54:18;8.70;;;4.10;;
75680;SDS011;64294;49.176;16.626;2023-10-09T02:56:59;7.28;;;3.90;;
75680;SDS011;64294;49.176;16.626;2023-10-09T02:59:32;9.43;;;4.10;;
75680;SDS011;64294;49.176;16.626;2023-10-09T03:01:57;9.23;;;4.10;;
75680;SDS011;64294;49.176;16.626;2023-10-09T03:04:27;8.32;;;3.60;;
75680;SDS011;64294;49.176;16.626;2023-10-09T03:06:55;6.82;;;3.90;;
75680;SDS011;64294;49.176;16.626;2023-10-09T03:09:24;9.60;;;4.28;;
75680;SDS011;64294;49.176;16.626;2023-10-09T03:11:57;8.00;;;3.58;;
75680;SDS011;64294;49.176;16.626;2023-10-09T03:14:35;7.88;;;3.75;;
75680;SDS011;64294;49.176;16.626;2023-10-09T03:17:03;9.00;;;3.30;;
75680;SDS011;64294;49.176;16.626;2023-10-09T03:19:31;7.55;;;3.35;;
75680;SDS011;64294;49.176;16.626;2023-10-09T03:22:08;8.93;;;3.20;;
75680;SDS011;64294;49.176;16.626;2023-10-09T03:24:37;7.78;;;2.95;;
75680;SDS011;64294;49.176;16.626;2023-10-09T03:27:04;5.50;;;2.40;;
75680;SDS011;64294;49.176;16.626;2023-10-09T03:29:29;3.97;;;2.40;;
75680;SDS011;64294;49.176;16.626;2023-10-09T03:31:55;6.38;;;2.35;;
75680;SDS011;64294;49.176;16.626;2023-10-09T03:34:21;3.42;;;2.35;;
75680;SDS011;64294;49.176;16.626;2023-10-09T03:36:47;7.88;;;2.50;;
75680;SDS011;64294;49.176;16.626;2023-10-09T03:39:28;4.47;;;2.70;;
75680;SDS011;64294;49.176;16.626;2023-10-09T03:42:06;6.60;;;2.75;;
75680;SDS011;64294;49.176;16.626;2023-10-09T03:44:40;6.00;;;3.10;;
75680;SDS011;64294;49.176;16.626;2023-10-09T03:47:09;6.55;;;2.65;;
75680;SDS011;64294;49.176;16.626;2023-10-09T03:49:36;3.92;;;2.58;;
75680;SDS011;64294;49.176;16.626;2023-10-09T03:52:04;6.00;;;2.75;;
75680;SDS011;64294;49.176;16.626;2023-10-09T03:54:31;5.35;;;2.85;;
75680;SDS011;64294;49.176;16.626;2023-10-09T03:56:59;6.22;;;3.00;;
75680;SDS011;64294;49.176;16.626;2023-10-09T03:59:24;4.28;;;2.70;;
75680;SDS011;64294;49.176;16.626;2023-10-09T04:01:55;5.80;;;2.67;;
75680;SDS011;64294;49.176;16.626;2023-10-09T04:04:22;6.78;;;2.80;;
75680;SDS011;64294;49.176;16.626;2023-10-09T04:06:48;5.95;;;2.75;;
75680;SDS011;64294;49.176;16.626;2023-10-09T04:09:13;5.45;;;2.92;;
75680;SDS011;64294;49.176;16.626;2023-10-09T04:11:48;5.93;;;2.85;;
75680;SDS011;64294;49.176;16.626;2023-10-09T04:14:33;6.22;;;2.78;;
75680;SDS011;64294;49.176;16.626;2023-10-09T04:16:59;6.38;;;2.72;;
75680;SDS011;64294;49.176;16.626;2023-10-09T04:19:49;6.93;;;2.80;;
75680;SDS011;64294;49.176;16.626;2023-10-09T04:22:37;6.47;;;3.25;;
75680;SDS011;64294;49.176;16.626;2023-10-09T04:25:19;6.78;;;3.08;;
75680;SDS011;64294;49.176;16.626;2023-10-09T04:27:55;5.03;;;2.63;;
75680;SDS011;64294;49.176;16.626;2023-10-09T04:30:38;5.97;;;2.80;;
75680;SDS011;64294;49.176;16.626;2023-10-09T04:33:14;7.20;;;2.95;;
75680;SDS011;64294;49.176;16.626;2023-10-09T04:36:01;4.72;;;2.75;;
75680;SDS011;64294;49.176;16.626;2023-10-09T04:38:46;6.47;;;2.88;;
75680;SDS011;64294;49.176;16.626;2023-10-09T04:41:39;6.50;;;2.90;;
75680;SDS011;64294;49.176;16.626;2023-10-09T04:44:08;5.47;;;3.03;;
75680;SDS011;64294;49.176;16.626;2023-10-09T04:46:43;7.38;;;3.10;;
75680;SDS011;64294;49.176;16.626;2023-10-09T04:49:12;6.50;;;3.25;;
75680;SDS011;64294;49.176;16.626;2023-10-09T04:51:55;6.00;;;2.80;;
75680;SDS011;64294;49.176;16.626;2023-10-09T04:54:33;6.45;;;2.78;;
75680;SDS011;64294;49.176;16.626;2023-10-09T04:57:04;8.55;;;2.88;;
75680;SDS011;64294;49.176;16.626;2023-10-09T04:59:43;7.32;;;2.67;;
75680;SDS011;64294;49.176;16.626;2023-10-09T05:02:12;5.50;;;2.80;;
75680;SDS011;64294;49.176;16.626;2023-10-09T05:04:44;8.82;;;2.88;;
75680;SDS011;64294;49.176;16.626;2023-10-09T05:07:12;5.55;;;2.53;;
75680;SDS011;64294;49.176;16.626;2023-10-09T05:09:56;7.00;;;3.40;;
75680;SDS011;64294;49.176;16.626;2023-10-09T05:12:34;5.35;;;2.60;;
75680;SDS011;64294;49.176;16.626;2023-10-09T05:15:06;6.43;;;2.70;;
75680;SDS011;64294;49.176;16.626;2023-10-09T05:17:35;4.97;;;2.70;;
75680;SDS011;64294;49.176;16.626;2023-10-09T05:20:03;6.45;;;2.70;;
75680;SDS011;64294;49.176;16.626;2023-10-09T05:23:04;5.68;;;2.83;;
75680;SDS011;64294;49.176;16.626;2023-10-09T05:25:48;5.88;;;2.47;;
75680;SDS011;64294;49.176;16.626;2023-10-09T05:28:21;8.18;;;3.22;;
75680;SDS011;64294;49.176;16.626;2023-10-09T05:31:05;6.75;;;2.80;;
75680;SDS011;64294;49.176;16.626;2023-10-09T05:33:34;7.90;;;2.83;;
75680;SDS011;64294;49.176;16.626;2023-10-09T05:36:05;4.45;;;2.70;;
75680;SDS011;64294;49.176;16.626;2023-10-09T05:38:56;7.68;;;2.90;;
75680;SDS011;64294;49.176;16.626;2023-10-09T05:41:45;5.57;;;2.80;;
75680;SDS011;64294;49.176;16.626;2023-10-09T05:44:16;6.47;;;2.60;;
75680;SDS011;64294;49.176;16.626;2023-10-09T05:47:00;6.53;;;2.30;;
75680;SDS011;64294;49.176;16.626;2023-10-09T05:49:53;9.30;;;3.17;;
75680;SDS011;64294;49.176;16.626;2023-10-09T05:52:38;4.65;;;2.40;;
75680;SDS011;64294;49.176;16.626;2023-10-09T05:55:04;5.88;;;2.30;;
75680;SDS011;64294;49.176;16.626;2023-10-09T05:57:55;8.02;;;2.60;;
75680;SDS011;64294;49.176;16.626;2023-10-09T06:00:40;6.25;;;2.20;;
75680;SDS011;64294;49.176;16.626;2023-10-09T06:06:12;6.80;;;2.58;;
75680;SDS011;64294;49.176;16.626;2023-10-09T06:08:56;13.38;;;3.03;;
75680;SDS011;64294;49.176;16.626;2023-10-09T06:11:41;5.35;;;2.20;;
75680;SDS011;64294;49.176;16.626;2023-10-09T06:14:14;4.13;;;2.15;;
75680;SDS011;64294;49.176;16.626;2023-10-09T06:16:52;7.25;;;2.70;;
75680;SDS011;64294;49.176;16.626;2023-10-09T06:19:36;9.13;;;2.40;;
75680;SDS011;64294;49.176;16.626;2023-10-09T06:22:08;11.98;;;2.60;;
75680;SDS011;64294;49.176;16.626;2023-10-09T06:24:38;12.40;;;3.33;;
75680;SDS011;64294;49.176;16.626;2023-10-09T06:27:11;24.13;;;4.38;;
75680;SDS011;64294;49.176;16.626;2023-10-09T06:29:41;8.73;;;2.60;;
75680;SDS011;64294;49.176;16.626;2023-10-09T06:32:13;22.67;;;2.90;;
75680;SDS011;64294;49.176;16.626;2023-10-09T06:34:56;15.30;;;2.85;;
75680;SDS011;64294;49.176;16.626;2023-10-09T06:37:44;8.63;;;2.50;;
75680;SDS011;64294;49.176;16.626;2023-10-09T06:40:33;4.53;;;2.55;;
75680;SDS011;64294;49.176;16.626;2023-10-09T06:43:05;15.07;;;2.58;;
75680;SDS011;64294;49.176;16.626;2023-10-09T06:45:55;15.65;;;3.03;;
75680;SDS011;64294;49.176;16.626;2023-10-09T06:48:45;14.23;;;2.80;;
75680;SDS011;64294;49.176;16.626;2023-10-09T06:51:14;15.23;;;2.45;;
75680;SDS011;64294;49.176;16.626;2023-10-09T06:53:57;9.73;;;2.00;;
75680;SDS011;64294;49.176;16.626;2023-10-09T06:56:29;7.78;;;1.90;;
75680;SDS011;64294;49.176;16.626;2023-10-09T06:58:55;12.18;;;2.40;;
75680;SDS011;64294;49.176;16.626;2023-10-09T07:01:41;20.65;;;2.38;;
75680;SDS011;64294;49.176;16.626;2023-10-09T07:04:12;36.85;;;5.22;;
75680;SDS011;64294;49.176;16.626;2023-10-09T07:06:47;19.23;;;2.58;;
75680;SDS011;64294;49.176;16.626;2023-10-09T07:09:14;26.40;;;2.92;;
75680;SDS011;64294;49.176;16.626;2023-10-09T07:14:22;18.98;;;3.08;;
75680;SDS011;64294;49.176;16.626;2023-10-09T07:17:02;25.13;;;3.08;;
75680;SDS011;64294;49.176;16.626;2023-10-09T07:19:41;22.73;;;2.55;;
75680;SDS011;64294;49.176;16.626;2023-10-09T07:22:11;27.83;;;2.88;;
75680;SDS011;64294;49.176;16.626;2023-10-09T07:24:46;15.27;;;2.15;;
75680;SDS011;64294;49.176;16.626;2023-10-09T07:27:25;20.35;;;2.97;;
75680;SDS011;64294;49.176;16.626;2023-10-09T07:30:11;13.07;;;2.25;;
75680;SDS011;64294;49.176;16.626;2023-10-09T07:32:57;5.65;;;1.92;;
75680;SDS011;64294;49.176;16.626;2023-10-09T07:35:42;23.17;;;2.78;;
75680;SDS011;64294;49.176;16.626;2023-10-09T07:38:22;8.85;;;2.50;;
75680;SDS011;64294;49.176;16.626;2023-10-09T07:40:53;12.38;;;2.47;;
75680;SDS011;64294;49.176;16.626;2023-10-09T07:43:38;21.80;;;2.53;;
75680;SDS011;64294;49.176;16.626;2023-10-09T07:46:08;14.85;;;2.45;;
75680;SDS011;64294;49.176;16.626;2023-10-09T07:48:53;18.50;;;2.58;;
75680;SDS011;64294;49.176;16.626;2023-10-09T07:51:20;10.25;;;2.53;;
75680;SDS011;64294;49.176;16.626;2023-10-09T07:53:56;13.55;;;2.35;;
75680;SDS011;64294;49.176;16.626;2023-10-09T07:56:24;18.33;;;2.47;;
75680;SDS011;64294;49.176;16.626;2023-10-09T07:58:55;12.45;;;2.30;;
75680;SDS011;64294;49.176;16.626;2023-10-09T08:01:25;23.48;;;2.92;;
75680;SDS011;64294;49.176;16.626;2023-10-09T08:03:54;11.98;;;2.17;;
75680;SDS011;64294;49.176;16.626;2023-10-09T08:06:25;5.13;;;1.90;;
75680;SDS011;64294;49.176;16.626;2023-10-09T08:09:09;14.63;;;3.00;;
75680;SDS011;64294;49.176;16.626;2023-10-09T08:11:38;13.90;;;2.15;;
75680;SDS011;64294;49.176;16.626;2023-10-09T08:14:04;12.75;;;2.33;;
75680;SDS011;64294;49.176;16.626;2023-10-09T08:16:45;9.20;;;2.45;;
75680;SDS011;64294;49.176;16.626;2023-10-09T08:19:11;24.48;;;3.38;;
75680;SDS011;64294;49.176;16.626;2023-10-09T08:22:09;21.35;;;2.92;;
75680;SDS011;64294;49.176;16.626;2023-10-09T08:24:49;15.25;;;3.35;;
75680;SDS011;64294;49.176;16.626;2023-10-09T08:29:59;6.68;;;1.90;;
75680;SDS011;64294;49.176;16.626;2023-10-09T08:32:48;6.30;;;2.05;;
75680;SDS011;64294;49.176;16.626;2023-10-09T08:35:31;9.63;;;2.17;;
75680;SDS011;64294;49.176;16.626;2023-10-09T08:37:59;14.93;;;2.90;;
75680;SDS011;64294;49.176;16.626;2023-10-09T08:40:33;18.05;;;2.63;;
75680;SDS011;64294;49.176;16.626;2023-10-09T08:43:09;15.80;;;2.70;;
75680;SDS011;64294;49.176;16.626;2023-10-09T08:45:38;7.10;;;2.05;;
75680;SDS011;64294;49.176;16.626;2023-10-09T08:48:05;3.42;;;2.00;;
75680;SDS011;64294;49.176;16.626;2023-10-09T08:50:32;4.88;;;2.10;;
75680;SDS011;64294;49.176;16.626;2023-10-09T08:53:01;4.80;;;2.05;;
75680;SDS011;64294;49.176;16.626;2023-10-09T08:55:29;3.50;;;2.00;;
75680;SDS011;64294;49.176;16.626;2023-10-09T08:57:54;8.05;;;2.80;;
75680;SDS011;64294;49.176;16.626;2023-10-09T09:00:23;5.30;;;1.98;;
75680;SDS011;64294;49.176;16.626;2023-10-09T09:02:52;7.20;;;2.20;;
75680;SDS011;64294;49.176;16.626;2023-10-09T09:05:18;6.43;;;2.10;;
75680;SDS011;64294;49.176;16.626;2023-10-09T09:07:48;5.28;;;2.00;;
75680;SDS011;64294;49.176;16.626;2023-10-09T09:10:14;6.03;;;2.33;;
75680;SDS011;64294;49.176;16.626;2023-10-09T09:12:46;8.95;;;2.17;;
75680;SDS011;64294;49.176;16.626;2023-10-09T09:15:15;7.15;;;2.22;;
75680;SDS011;64294;49.176;16.626;2023-10-09T09:17:47;10.05;;;2.50;;
75680;SDS011;64294;49.176;16.626;2023-10-09T09:23:01;8.35;;;2.38;;
75680;SDS011;64294;49.176;16.626;2023-10-09T09:25:45;7.18;;;2.08;;
75680;SDS011;64294;49.176;16.626;2023-10-09T09:28:23;4.97;;;2.30;;
75680;SDS011;64294;49.176;16.626;2023-10-09T09:30:51;5.55;;;2.22;;
75680;SDS011;64294;49.176;16.626;2023-10-09T09:33:32;3.97;;;2.08;;
75680;SDS011;64294;49.176;16.626;2023-10-09T09:36:08;10.65;;;2.78;;
75680;SDS011;64294;49.176;16.626;2023-10-09T09:38:37;5.70;;;2.40;;
75680;SDS011;64294;49.176;16.626;2023-10-09T09:41:18;5.63;;;2.30;;
75680;SDS011;64294;49.176;16.626;2023-10-09T09:43:54;6.38;;;2.55;;
75680;SDS011;64294;49.176;16.626;2023-10-09T09:46:21;7.57;;;2.35;;
75680;SDS011;64294;49.176;16.626;2023-10-09T09:48:57;6.80;;;2.80;;
75680;SDS011;64294;49.176;16.626;2023-10-09T09:51:25;7.20;;;2.40;;
75680;SDS011;64294;49.176;16.626;2023-10-09T09:53:54;7.78;;;2.88;;
75680;SDS011;64294;49.176;16.626;2023-10-09T09:56:22;8.70;;;2.75;;
75680;SDS011;64294;49.176;16.626;2023-10-09T09:58:50;5.30;;;2.55;;
75680;SDS011;64294;49.176;16.626;2023-10-09T10:01:19;8.52;;;2.85;;
75680;SDS011;64294;49.176;16.626;2023-10-09T10:03:59;4.95;;;2.30;;
75680;SDS011;64294;49.176;16.626;2023-10-09T10:06:37;9.07;;;2.40;;
75680;SDS011;64294;49.176;16.626;2023-10-09T10:09:06;6.47;;;2.72;;
75680;SDS011;64294;49.176;16.626;2023-10-09T10:11:47;9.88;;;3.03;;
75680;SDS011;64294;49.176;16.626;2023-10-09T10:14:17;5.82;;;2.47;;
75680;SDS011;64294;49.176;16.626;2023-10-09T10:17:08;9.73;;;2.80;;
75680;SDS011;64294;49.176;16.626;2023-10-09T10:22:29;6.68;;;3.38;;
75680;SDS011;64294;49.176;16.626;2023-10-09T10:24:58;6.30;;;3.33;;
75680;SDS011;64294;49.176;16.626;2023-10-09T10:27:28;7.63;;;3.42;;
75680;SDS011;64294;49.176;16.626;2023-10-09T10:32:56;9.15;;;3.70;;
75680;SDS011;64294;49.176;16.626;2023-10-09T10:35:48;7.70;;;4.03;;
75680;SDS011;64294;49.176;16.626;2023-10-09T10:38:29;7.80;;;3.85;;
75680;SDS011;64294;49.176;16.626;2023-10-09T10:41:18;11.13;;;4.32;;
75680;SDS011;64294;49.176;16.626;2023-10-09T10:43:47;10.57;;;4.15;;
75680;SDS011;64294;49.176;16.626;2023-10-09T10:46:15;8.65;;;3.92;;
75680;SDS011;64294;49.176;16.626;2023-10-09T10:49:10;8.15;;;3.97;;
75680;SDS011;64294;49.176;16.626;2023-10-09T10:51:36;11.25;;;3.30;;
75680;SDS011;64294;49.176;16.626;2023-10-09T10:54:04;8.95;;;3.42;;
75680;SDS011;64294;49.176;16.626;2023-10-09T10:56:50;8.75;;;3.95;;
75680;SDS011;64294;49.176;16.626;2023-10-09T10:59:19;8.57;;;3.83;;
75680;SDS011;64294;49.176;16.626;2023-10-09T11:01:48;7.88;;;3.95;;
75680;SDS011;64294;49.176;16.626;2023-10-09T11:04:24;11.18;;;4.10;;
75680;SDS011;64294;49.176;16.626;2023-10-09T11:06:52;9.40;;;3.88;;
75680;SDS011;64294;49.176;16.626;2023-10-09T11:09:25;11.15;;;4.38;;
75680;SDS011;64294;49.176;16.626;2023-10-09T11:12:06;12.18;;;4.18;;
75680;SDS011;64294;49.176;16.626;2023-10-09T11:14:46;7.35;;;4.35;;
75680;SDS011;64294;49.176;16.626;2023-10-09T11:17:31;10.27;;;4.30;;
75680;SDS011;64294;49.176;16.626;2023-10-09T11:19:58;11.30;;;4.93;;
75680;SDS011;64294;49.176;16.626;2023-10-09T11:22:44;9.20;;;4.68;;
75680;SDS011;64294;49.176;16.626;2023-10-09T11:25:30;9.35;;;4.15;;
75680;SDS011;64294;49.176;16.626;2023-10-09T11:27:56;9.25;;;4.35;;
75680;SDS011;64294;49.176;16.626;2023-10-09T11:30:30;13.15;;;4.80;;
75680;SDS011;64294;49.176;16.626;2023-10-09T11:33:06;10.32;;;4.72;;
75680;SDS011;64294;49.176;16.626;2023-10-09T11:35:39;9.70;;;4.90;;
75680;SDS011;64294;49.176;16.626;2023-10-09T11:38:06;11.95;;;4.28;;
75680;SDS011;64294;49.176;16.626;2023-10-09T11:40:46;10.57;;;4.45;;
75680;SDS011;64294;49.176;16.626;2023-10-09T11:43:17;11.00;;;4.32;;
75680;SDS011;64294;49.176;16.626;2023-10-09T11:45:42;12.70;;;4.95;;
75680;SDS011;64294;49.176;16.626;2023-10-09T11:48:20;15.02;;;4.55;;
75680;SDS011;64294;49.176;16.626;2023-10-09T11:51:11;8.85;;;4.38;;
75680;SDS011;64294;49.176;16.626;2023-10-09T11:53:46;10.85;;;4.25;;
75680;SDS011;64294;49.176;16.626;2023-10-09T11:56:15;11.38;;;4.78;;
75680;SDS011;64294;49.176;16.626;2023-10-09T11:58:42;10.85;;;4.22;;
75680;SDS011;64294;49.176;16.626;2023-10-09T12:01:13;10.80;;;4.63;;
75680;SDS011;64294;49.176;16.626;2023-10-09T12:03:45;13.50;;;4.82;;
75680;SDS011;64294;49.176;16.626;2023-10-09T12:06:18;14.13;;;5.40;;
75680;SDS011;64294;49.176;16.626;2023-10-09T12:08:45;10.98;;;4.72;;
75680;SDS011;64294;49.176;16.626;2023-10-09T12:11:14;11.63;;;5.05;;
75680;SDS011;64294;49.176;16.626;2023-10-09T12:13:47;13.27;;;5.20;;
75680;SDS011;64294;49.176;16.626;2023-10-09T12:16:21;13.02;;;5.38;;
75680;SDS011;64294;49.176;16.626;2023-10-09T12:18:47;12.02;;;5.00;;
75680;SDS011;64294;49.176;16.626;2023-10-09T12:21:18;11.43;;;5.18;;
75680;SDS011;64294;49.176;16.626;2023-10-09T12:23:43;13.52;;;5.25;;
75680;SDS011;64294;49.176;16.626;2023-10-09T12:26:12;12.18;;;5.43;;
75680;SDS011;64294;49.176;16.626;2023-10-09T12:28:41;10.07;;;4.72;;
75680;SDS011;64294;49.176;16.626;2023-10-09T12:31:15;11.80;;;4.72;;
75680;SDS011;64294;49.176;16.626;2023-10-09T12:33:45;14.15;;;4.75;;
75680;SDS011;64294;49.176;16.626;2023-10-09T12:36:14;10.38;;;6.13;;
75680;SDS011;64294;49.176;16.626;2023-10-09T12:38:45;10.23;;;5.10;;
75680;SDS011;64294;49.176;16.626;2023-10-09T12:41:15;10.73;;;4.75;;
75680;SDS011;64294;49.176;16.626;2023-10-09T12:43:56;10.98;;;4.65;;
75680;SDS011;64294;49.176;16.626;2023-10-09T12:46:24;11.02;;;4.95;;
75680;SDS011;64294;49.176;16.626;2023-10-09T12:48:57;9.55;;;5.00;;
75680;SDS011;64294;49.176;16.626;2023-10-09T12:51:22;9.90;;;4.82;;
75680;SDS011;64294;49.176;16.626;2023-10-09T12:53:54;10.20;;;5.00;;
75680;SDS011;64294;49.176;16.626;2023-10-09T12:56:26;12.63;;;5.03;;
75680;SDS011;64294;49.176;16.626;2023-10-09T12:59:02;10.73;;;5.18;;
75680;SDS011;64294;49.176;16.626;2023-10-09T13:01:32;10.70;;;5.00;;
75680;SDS011;64294;49.176;16.626;2023-10-09T13:04:13;8.88;;;5.07;;
75680;SDS011;64294;49.176;16.626;2023-10-09T13:06:43;10.95;;;5.22;;
75680;SDS011;64294;49.176;16.626;2023-10-09T13:09:12;13.88;;;5.53;;
75680;SDS011;64294;49.176;16.626;2023-10-09T13:11:39;16.20;;;5.60;;
75680;SDS011;64294;49.176;16.626;2023-10-09T13:14:06;12.63;;;5.38;;
75680;SDS011;64294;49.176;16.626;2023-10-09T13:16:46;11.07;;;5.30;;
75680;SDS011;64294;49.176;16.626;2023-10-09T13:19:15;10.25;;;5.88;;
75680;SDS011;64294;49.176;16.626;2023-10-09T13:21:42;10.85;;;5.32;;
75680;SDS011;64294;49.176;16.626;2023-10-09T13:24:08;12.45;;;5.07;;
75680;SDS011;64294;49.176;16.626;2023-10-09T13:26:49;13.55;;;5.53;;
75680;SDS011;64294;49.176;16.626;2023-10-09T13:29:17;12.88;;;5.95;;
75680;SDS011;64294;49.176;16.626;2023-10-09T13:31:47;15.27;;;5.28;;
75680;SDS011;64294;49.176;16.626;2023-10-09T13:34:15;19.17;;;5.47;;
75680;SDS011;64294;49.176;16.626;2023-10-09T13:36:43;12.95;;;5.28;;
75680;SDS011;64294;49.176;16.626;2023-10-09T13:39:18;12.07;;;5.22;;
75680;SDS011;64294;49.176;16.626;2023-10-09T13:41:47;10.77;;;5.18;;
75680;SDS011;64294;49.176;16.626;2023-10-09T13:44:15;12.90;;;5.22;;
75680;SDS011;64294;49.176;16.626;2023-10-09T13:46:41;14.25;;;5.10;;
75680;SDS011;64294;49.176;16.626;2023-10-09T13:49:09;12.85;;;5.32;;
75680;SDS011;64294;49.176;16.626;2023-10-09T13:51:39;9.60;;;5.30;;
75680;SDS011;64294;49.176;16.626;2023-10-09T13:54:12;10.07;;;5.22;;
75680;SDS011;64294;49.176;16.626;2023-10-09T13:57:04;13.82;;;6.10;;
75680;SDS011;64294;49.176;16.626;2023-10-09T13:59:31;11.65;;;6.03;;
75680;SDS011;64294;49.176;16.626;2023-10-09T14:02:00;13.55;;;5.63;;
75680;SDS011;64294;49.176;16.626;2023-10-09T14:04:27;10.50;;;5.70;;
75680;SDS011;64294;49.176;16.626;2023-10-09T14:06:53;12.82;;;6.38;;
75680;SDS011;64294;49.176;16.626;2023-10-09T14:09:22;13.57;;;6.45;;
75680;SDS011;64294;49.176;16.626;2023-10-09T14:12:04;12.40;;;6.57;;
75680;SDS011;64294;49.176;16.626;2023-10-09T14:17:06;14.18;;;7.03;;
75680;SDS011;64294;49.176;16.626;2023-10-09T14:19:41;12.77;;;7.30;;
75680;SDS011;64294;49.176;16.626;2023-10-09T14:22:12;11.40;;;6.30;;
75680;SDS011;64294;49.176;16.626;2023-10-09T14:24:41;11.75;;;5.47;;
75680;SDS011;64294;49.176;16.626;2023-10-09T14:27:10;11.13;;;5.22;;
75680;SDS011;64294;49.176;16.626;2023-10-09T14:29:45;9.98;;;5.55;;
75680;SDS011;64294;49.176;16.626;2023-10-09T14:32:10;12.73;;;5.32;;
75680;SDS011;64294;49.176;16.626;2023-10-09T14:34:39;14.63;;;6.65;;
75680;SDS011;64294;49.176;16.626;2023-10-09T14:37:14;11.55;;;5.82;;
75680;SDS011;64294;49.176;16.626;2023-10-09T14:39:41;12.68;;;5.80;;
75680;SDS011;64294;49.176;16.626;2023-10-09T14:42:07;11.23;;;6.25;;
75680;SDS011;64294;49.176;16.626;2023-10-09T14:44:36;13.90;;;6.35;;
75680;SDS011;64294;49.176;16.626;2023-10-09T14:47:07;12.73;;;5.90;;
75680;SDS011;64294;49.176;16.626;2023-10-09T14:49:33;12.80;;;6.30;;
75680;SDS011;64294;49.176;16.626;2023-10-09T14:52:08;15.55;;;6.60;;
75680;SDS011;64294;49.176;16.626;2023-10-09T14:54:37;14.55;;;6.22;;
75680;SDS011;64294;49.176;16.626;2023-10-09T14:57:03;12.93;;;6.38;;
75680;SDS011;64294;49.176;16.626;2023-10-09T14:59:32;13.20;;;5.90;;
75680;SDS011;64294;49.176;16.626;2023-10-09T15:01:58;12.02;;;6.57;;
75680;SDS011;64294;49.176;16.626;2023-10-09T15:04:24;11.80;;;6.45;;
75680;SDS011;64294;49.176;16.626;2023-10-09T15:06:51;12.35;;;6.18;;
75680;SDS011;64294;49.176;16.626;2023-10-09T15:09:17;13.68;;;6.43;;
75680;SDS011;64294;49.176;16.626;2023-10-09T15:11:49;11.02;;;6.72;;
75680;SDS011;64294;49.176;16.626;2023-10-09T15:14:15;14.25;;;6.93;;
75680;SDS011;64294;49.176;16.626;2023-10-09T15:16:41;14.48;;;7.22;;
75680;SDS011;64294;49.176;16.626;2023-10-09T15:19:11;15.07;;;7.75;;
75680;SDS011;64294;49.176;16.626;2023-10-09T15:21:37;18.83;;;7.93;;
75680;SDS011;64294;49.176;16.626;2023-10-09T15:24:09;15.77;;;7.10;;
75680;SDS011;64294;49.176;16.626;2023-10-09T15:26:37;14.43;;;7.35;;
75680;SDS011;64294;49.176;16.626;2023-10-09T15:29:03;15.68;;;7.25;;